Speedrunner III — SVAF3 — position and weather

sailwx.info

Track history (hours):
 
Tides and Currents Weather Stations Pressure Air Temp Water Temp Dewpoint Dewpoint Depression Visibility Wind Speed Wind Dir Waves Ship Positions

Speedrunner III

Last reported at 2017-Nov-20 00:29 UTC. Time now 2017-Nov-21 15:49 UTC.
Position N 37°57' E 023°38'.

Length 100 m; draft 4 m.

Type: Ship. MMSI: 240932000.

Date/timePositionNaut miles runAvg speedWind from/ knotsBaromVisibWave heightAir tempDewpointWater temp
2017-Nov-20 00:29N 37°57' E 023°38'0 0.0
2017-Nov-19 23:59N 37°57' E 023°38'0 0.0
2017-Nov-19 23:29N 37°57' E 023°38'0 0.0
2017-Nov-19 22:59N 37°57' E 023°38'0 0.0
2017-Nov-19 22:29N 37°57' E 023°38'0 0.0
2017-Nov-19 21:59N 37°57' E 023°38'0 0.0
2017-Nov-19 21:29N 37°57' E 023°38'0 0.0
2017-Nov-19 20:59N 37°57' E 023°38'0 0.0
2017-Nov-19 20:29N 37°57' E 023°38'0 0.0
2017-Nov-19 19:59N 37°57' E 023°38'0 0.0
2017-Nov-19 19:29N 37°57' E 023°38'0 0.0
2017-Nov-19 18:59N 37°57' E 023°38'0 0.0
2017-Nov-19 18:29N 37°57' E 023°38'0 0.0
2017-Nov-19 17:59N 37°57' E 023°38'2 4.8
2017-Nov-19 17:31N 37°54' E 023°38'1631.7
2017-Nov-19 17:00N 37°40' E 023°47'11 1.5
2017-Nov-19 10:04N 37°31' E 023°54'231.9
2017-Nov-19 10:01N 37°33' E 023°52'1631.4
2017-Nov-19 09:31N 37°45' E 023°40'1223.8
2017-Nov-19 09:00N 37°57' E 023°38'0 0.0
2017-Nov-19 07:14N 37°57' E 023°38'0 0.0
2017-Nov-19 06:50N 37°57' E 023°38'0 0.0
2017-Nov-19 06:20N 37°57' E 023°38'0 0.0
2017-Nov-19 05:32N 37°57' E 023°38'0 0.0
2017-Nov-19 05:14N 37°57' E 023°38'0 0.0
2017-Nov-19 04:56N 37°57' E 023°38'0 0.0
2017-Nov-19 04:26N 37°57' E 023°38'0 0.0
2017-Nov-19 03:56N 37°57' E 023°38'0 0.0
2017-Nov-19 03:26N 37°57' E 023°38'0 0.0
2017-Nov-19 02:56N 37°57' E 023°38'0 0.0
2017-Nov-19 02:26N 37°57' E 023°38'0 0.0
2017-Nov-19 01:44N 37°57' E 023°38'0 0.0
2017-Nov-19 01:20N 37°57' E 023°38'0 0.0
2017-Nov-19 00:56N 37°57' E 023°38'0 0.0
2017-Nov-19 00:26N 37°57' E 023°38'0 0.0
2017-Nov-18 23:32N 37°57' E 023°38'0 0.1
2017-Nov-18 23:26N 37°57' E 023°38'0 0.0
2017-Nov-18 22:50N 37°57' E 023°38'0 0.0
2017-Nov-18 22:26N 37°57' E 023°38'0 0.0
2017-Nov-18 21:32N 37°57' E 023°38'0 0.0
2017-Nov-18 21:26N 37°57' E 023°38'0 0.0
2017-Nov-18 20:20N 37°57' E 023°38'0 0.0
2017-Nov-18 13:14N 37°57' E 023°38'0 0.0
2017-Nov-18 11:50N 37°57' E 023°38'0 0.0
2017-Nov-18 10:50N 37°57' E 023°38'0 0.0
2017-Nov-18 10:20N 37°57' E 023°38'0 0.0
2017-Nov-18 08:44N 37°57' E 023°38'0 0.0
2017-Nov-18 08:26N 37°57' E 023°38'0 0.0
2017-Nov-18 07:08N 37°57' E 023°38'0 0.0
2017-Nov-18 06:56N 37°57' E 023°38'0 0.0
2017-Nov-18 05:26N 37°57' E 023°38'0 0.0
2017-Nov-18 04:32N 37°57' E 023°38'0 0.0
2017-Nov-18 04:08N 37°57' E 023°38'0 0.0
2017-Nov-18 03:44N 37°57' E 023°38'0 0.0
2017-Nov-18 03:26N 37°57' E 023°38'0 0.0
2017-Nov-18 02:44N 37°57' E 023°38'0 0.0
2017-Nov-18 02:14N 37°57' E 023°38'0 0.0
2017-Nov-18 01:50N 37°57' E 023°38'0 0.0
2017-Nov-18 01:14N 37°57' E 023°38'0 0.0
2017-Nov-18 00:50N 37°57' E 023°38'0 0.0
2017-Nov-18 00:26N 37°57' E 023°38'0 0.0
2017-Nov-17 23:50N 37°57' E 023°38'0 0.0
2017-Nov-17 23:20N 37°57' E 023°38'0 0.0
2017-Nov-17 22:56N 37°57' E 023°38'0 0.0
2017-Nov-17 22:26N 37°57' E 023°38'0 0.0
2017-Nov-17 21:56N 37°57' E 023°38'0 0.0
2017-Nov-17 21:26N 37°57' E 023°38'511.5
2017-Nov-17 21:01N 37°52' E 023°39'24 4.1
2017-Nov-17 15:05N 37°31' E 023°55'431.4
2017-Nov-17 14:59N 37°33' E 023°52'1430.8
2017-Nov-17 14:30N 37°44' E 023°40'1224.4
2017-Nov-17 14:00N 37°57' E 023°38'0 0.1
2017-Nov-17 12:54N 37°57' E 023°38'0 0.0
2017-Nov-17 12:18N 37°57' E 023°38'0 0.0
2017-Nov-17 11:07N 37°57' E 023°38'0 0.1
2017-Nov-17 11:00N 37°57' E 023°38'0 0.0
2017-Nov-17 10:31N 37°57' E 023°38'0 0.0
2017-Nov-17 10:00N 37°57' E 023°38'0 0.0
2017-Nov-17 09:31N 37°57' E 023°38'0 0.0
2017-Nov-17 09:00N 37°57' E 023°38'0 0.0
2017-Nov-17 08:31N 37°57' E 023°38'0 0.0
2017-Nov-17 08:01N 37°57' E 023°38'0 0.0
2017-Nov-17 07:30N 37°57' E 023°38'0 0.0
2017-Nov-17 07:01N 37°57' E 023°38'0 0.0
2017-Nov-17 06:31N 37°57' E 023°38'0 0.0
2017-Nov-17 06:00N 37°57' E 023°38'0 0.0
2017-Nov-17 05:30N 37°57' E 023°38'0 0.0
2017-Nov-17 05:01N 37°57' E 023°38'0 0.0
2017-Nov-17 04:30N 37°57' E 023°38'0 0.0
2017-Nov-17 04:01N 37°57' E 023°38'0 0.0
2017-Nov-17 03:31N 37°57' E 023°38'0 0.0
2017-Nov-17 03:01N 37°57' E 023°38'0 0.0
2017-Nov-17 02:30N 37°57' E 023°38'0 0.0
2017-Nov-17 02:01N 37°57' E 023°38'0 0.0
2017-Nov-17 01:30N 37°57' E 023°38'0 0.0
2017-Nov-17 01:00N 37°57' E 023°38'0 0.0
2017-Nov-17 00:30N 37°57' E 023°38'0 0.0
2017-Nov-17 00:01N 37°57' E 023°38'0 0.0
2017-Nov-16 23:31N 37°57' E 023°38'0 0.0
2017-Nov-16 23:01N 37°57' E 023°38'0 0.0
2017-Nov-16 22:30N 37°57' E 023°38'0 0.0
2017-Nov-16 22:00N 37°57' E 023°38'0 0.0
2017-Nov-16 21:31N 37°57' E 023°38'0 0.0
2017-Nov-16 21:01N 37°57' E 023°38'0 0.0
2017-Nov-16 20:30N 37°57' E 023°38'0 0.0
2017-Nov-16 19:58N 37°57' E 023°38'0 0.0
2017-Nov-16 19:31N 37°57' E 023°38'0 0.0
2017-Nov-16 19:01N 37°57' E 023°38'0 0.0
2017-Nov-16 18:31N 37°57' E 023°38'0 0.0
2017-Nov-16 18:00N 37°57' E 023°38'0 0.0
2017-Nov-16 17:31N 37°57' E 023°38'0 0.0
2017-Nov-16 17:01N 37°57' E 023°38'0 0.0
2017-Nov-16 16:30N 37°57' E 023°38'0 0.0
2017-Nov-16 16:00N 37°57' E 023°38'0 0.0
2017-Nov-16 15:31N 37°57' E 023°38'0 0.0
2017-Nov-16 15:01N 37°57' E 023°38'0 0.0
2017-Nov-16 14:30N 37°57' E 023°38'0 0.0
2017-Nov-16 14:01N 37°57' E 023°38'0 0.0
2017-Nov-16 13:30N 37°57' E 023°38'0 0.0
2017-Nov-16 13:00N 37°57' E 023°38'0 0.0
2017-Nov-16 12:31N 37°57' E 023°38'0 0.0
2017-Nov-16 12:01N 37°57' E 023°38'0 0.0
2017-Nov-16 11:31N 37°57' E 023°38'0 0.0
2017-Nov-16 11:01N 37°57' E 023°38'0 0.0
2017-Nov-16 10:27N 37°57' E 023°38'0 0.0
2017-Nov-16 10:01N 37°57' E 023°38'0 0.0
2017-Nov-16 09:31N 37°57' E 023°38'0 0.0
2017-Nov-16 09:00N 37°57' E 023°38'0 0.0
2017-Nov-16 08:30N 37°57' E 023°38'0 0.0
2017-Nov-16 08:00N 37°57' E 023°38'0 0.0
2017-Nov-16 07:31N 37°57' E 023°38'0 0.0
2017-Nov-16 07:00N 37°57' E 023°38'0 0.0
2017-Nov-16 06:30N 37°57' E 023°38'0 0.0
2017-Nov-16 06:01N 37°57' E 023°38'0 0.0
2017-Nov-16 05:31N 37°57' E 023°38'0 0.0
2017-Nov-16 05:00N 37°57' E 023°38'0 0.0
2017-Nov-16 04:30N 37°57' E 023°38'0 0.0
2017-Nov-16 04:01N 37°57' E 023°38'0 0.0
2017-Nov-16 03:31N 37°57' E 023°38'0 0.0
2017-Nov-16 03:01N 37°57' E 023°38'0 0.0
2017-Nov-16 02:31N 37°57' E 023°38'0 0.0
2017-Nov-16 02:01N 37°57' E 023°38'0 0.0
2017-Nov-16 01:31N 37°57' E 023°38'0 0.0
2017-Nov-16 01:00N 37°57' E 023°38'0 0.0
2017-Nov-16 00:31N 37°57' E 023°38'0 0.0
2017-Nov-16 00:00N 37°57' E 023°38'0 0.0
2017-Nov-15 23:30N 37°57' E 023°38'0 0.0
2017-Nov-15 23:01N 37°57' E 023°38'0 0.0
2017-Nov-15 22:30N 37°57' E 023°38'0 0.0
2017-Nov-15 22:01N 37°57' E 023°38'0 0.0
2017-Nov-15 21:31N 37°57' E 023°38'0 0.0
2017-Nov-15 21:00N 37°57' E 023°38'0 0.0
2017-Nov-15 20:30N 37°57' E 023°38'0 0.0
2017-Nov-15 20:00N 37°57' E 023°38'0 0.0
2017-Nov-15 19:31N 37°57' E 023°38'0 0.0
2017-Nov-15 19:00N 37°57' E 023°38'0 0.0
2017-Nov-15 18:31N 37°57' E 023°38'0 0.0
2017-Nov-15 18:01N 37°57' E 023°38'0 0.0
2017-Nov-15 17:01N 37°57' E 023°38'0 0.0
2017-Nov-15 16:31N 37°57' E 023°38'0 0.0
2017-Nov-15 15:07N 37°57' E 023°38'0 0.0
2017-Nov-15 15:01N 37°57' E 023°38'0 0.0
2017-Nov-15 14:30N 37°57' E 023°38'0 0.0
2017-Nov-15 14:01N 37°57' E 023°38'0 0.0
2017-Nov-15 13:31N 37°57' E 023°38'0 0.0
2017-Nov-15 13:00N 37°57' E 023°38'0 0.0
2017-Nov-15 12:30N 37°57' E 023°38'0 0.0
2017-Nov-15 12:00N 37°57' E 023°38'0 0.0
2017-Nov-15 11:30N 37°57' E 023°38'0 0.0
2017-Nov-15 11:01N 37°57' E 023°38'0 0.0
2017-Nov-15 10:27N 37°57' E 023°38'0 0.0
2017-Nov-15 10:00N 37°57' E 023°38'0 0.0
2017-Nov-15 09:30N 37°57' E 023°38'0 0.0
2017-Nov-15 09:00N 37°57' E 023°38'0 0.0
2017-Nov-15 08:31N 37°57' E 023°38'0 0.0
2017-Nov-15 08:01N 37°57' E 023°38'0 0.0
2017-Nov-15 07:31N 37°57' E 023°38'0 0.0
2017-Nov-15 07:01N 37°57' E 023°38'0 0.0
2017-Nov-15 06:31N 37°57' E 023°38'0 0.0
2017-Nov-15 06:00N 37°57' E 023°38'0 0.0
2017-Nov-15 05:31N 37°57' E 023°38'0 0.0
2017-Nov-15 05:01N 37°57' E 023°38'0 0.0
2017-Nov-15 04:30N 37°57' E 023°38'0 0.0
2017-Nov-15 04:01N 37°57' E 023°38'0 0.0
2017-Nov-15 03:31N 37°57' E 023°38'0 0.0
2017-Nov-15 03:01N 37°57' E 023°38'0 0.0
2017-Nov-15 02:30N 37°57' E 023°38'0 0.0
2017-Nov-15 02:01N 37°57' E 023°38'0 0.0
2017-Nov-15 01:31N 37°57' E 023°38'0 0.0
2017-Nov-15 01:00N 37°57' E 023°38'0 0.0
2017-Nov-15 00:30N 37°57' E 023°38'0 0.0
2017-Nov-15 00:01N 37°57' E 023°38'0 0.0
2017-Nov-14 23:31N 37°57' E 023°38'0 0.0
2017-Nov-14 23:00N 37°57' E 023°38'0 0.0
2017-Nov-14 22:31N 37°57' E 023°38'0 0.0
2017-Nov-14 22:01N 37°57' E 023°38'0 0.0
2017-Nov-14 21:31N 37°57' E 023°38'0 0.0
2017-Nov-14 21:00N 37°57' E 023°38'0 0.0
2017-Nov-14 20:30N 37°57' E 023°38'0 0.0
2017-Nov-14 20:01N 37°57' E 023°38'0 0.0
2017-Nov-14 19:31N 37°57' E 023°38'0 0.0
2017-Nov-14 19:00N 37°57' E 023°38'0 0.0
2017-Nov-14 18:31N 37°57' E 023°38'0 0.0
2017-Nov-14 18:00N 37°57' E 023°38'0 0.0
2017-Nov-14 17:31N 37°57' E 023°38'0 0.0
2017-Nov-14 17:00N 37°57' E 023°38'0 0.0
2017-Nov-14 16:31N 37°57' E 023°38'0 0.0
2017-Nov-14 16:00N 37°57' E 023°38'0 0.0
2017-Nov-14 15:30N 37°57' E 023°38'0 0.0
2017-Nov-14 15:01N 37°57' E 023°38'0 0.0
2017-Nov-14 14:30N 37°57' E 023°38'0 0.0
2017-Nov-14 14:01N 37°57' E 023°38'0 0.0
2017-Nov-14 13:30N 37°57' E 023°38'0 0.0
2017-Nov-14 13:00N 37°57' E 023°38'0 0.0
2017-Nov-14 12:30N 37°57' E 023°38'0 0.0
2017-Nov-14 12:01N 37°57' E 023°38'0 0.0
2017-Nov-14 11:31N 37°57' E 023°38'0 0.0
2017-Nov-14 11:01N 37°57' E 023°38'0 0.0
2017-Nov-14 10:31N 37°57' E 023°38'0 0.0
2017-Nov-14 10:00N 37°57' E 023°38'0 0.0
2017-Nov-14 09:31N 37°57' E 023°38'0 0.0
2017-Nov-14 09:01N 37°57' E 023°38'0 0.0
2017-Nov-14 08:25N 37°57' E 023°38'0 0.0
2017-Nov-14 08:01N 37°57' E 023°38'0 0.0
2017-Nov-14 07:31N 37°57' E 023°38'0 0.0
2017-Nov-14 06:58N 37°57' E 023°38'0 0.0
2017-Nov-14 06:31N 37°57' E 023°38'0 0.0
2017-Nov-14 06:01N 37°57' E 023°38'0 0.0
2017-Nov-14 05:30N 37°57' E 023°38'0 0.0
2017-Nov-14 05:01N 37°57' E 023°38'0 0.0
2017-Nov-14 04:31N 37°57' E 023°38'0 0.0
2017-Nov-14 04:00N 37°57' E 023°38'0 0.0
2017-Nov-14 03:31N 37°57' E 023°38'0 0.0
2017-Nov-14 03:00N 37°57' E 023°38'0 0.0
2017-Nov-14 02:31N 37°57' E 023°38'0 0.0
2017-Nov-14 02:00N 37°57' E 023°38'0 0.0
2017-Nov-14 01:31N 37°57' E 023°38'0 0.0
2017-Nov-14 01:01N 37°57' E 023°38'0 0.0
2017-Nov-14 00:31N 37°57' E 023°38'0 0.0
2017-Nov-14 00:01N 37°57' E 023°38'0 0.0
2017-Nov-13 23:31N 37°57' E 023°38'0 0.0
2017-Nov-13 23:01N 37°57' E 023°38'0 0.0
2017-Nov-13 22:31N 37°57' E 023°38'0 0.0
2017-Nov-13 22:00N 37°57' E 023°38'0 0.0
2017-Nov-13 02:01N 37°57' E 023°38'0 0.0
2017-Nov-13 01:31N 37°57' E 023°38'0 0.0
2017-Nov-13 01:00N 37°57' E 023°38'0 0.0
2017-Nov-13 00:30N 37°57' E 023°38'0 0.0
2017-Nov-13 00:00N 37°57' E 023°38'0 0.0
2017-Nov-12 23:31N 37°57' E 023°38'0 0.0
2017-Nov-12 23:00N 37°57' E 023°38'0 0.0
2017-Nov-12 22:31N 37°57' E 023°38'0 0.0
2017-Nov-12 22:01N 37°57' E 023°38'0 0.0
2017-Nov-12 21:30N 37°57' E 023°38'0 0.0
2017-Nov-12 21:01N 37°57' E 023°38'0 0.0
2017-Nov-12 20:28N 37°57' E 023°38'0 0.0
2017-Nov-12 20:00N 37°57' E 023°38'0 0.0
2017-Nov-12 19:31N 37°57' E 023°38'0 0.0
2017-Nov-12 19:01N 37°57' E 023°38'0 0.0
2017-Nov-12 18:31N 37°57' E 023°38'0 0.0
2017-Nov-12 18:01N 37°57' E 023°38'3 5.1
2017-Nov-12 17:31N 37°54' E 023°38'1632.2
2017-Nov-12 17:00N 37°40' E 023°47'11 1.6
2017-Nov-12 10:06N 37°31' E 023°54'331.1
2017-Nov-12 10:01N 37°33' E 023°52'1530.7
2017-Nov-12 09:31N 37°45' E 023°40'1223.8
2017-Nov-12 09:00N 37°57' E 023°38'0 0.0
2017-Nov-12 08:30N 37°57' E 023°38'0 0.0
2017-Nov-12 08:00N 37°57' E 023°38'0 0.0
2017-Nov-12 07:29N 37°57' E 023°38'0 0.0
2017-Nov-12 06:59N 37°57' E 023°38'0 0.0
2017-Nov-12 06:29N 37°57' E 023°38'0 0.0
2017-Nov-12 05:59N 37°57' E 023°38'0 0.0
2017-Nov-12 05:29N 37°57' E 023°38'0 0.0
2017-Nov-12 04:59N 37°57' E 023°38'0 0.0
2017-Nov-12 04:29N 37°57' E 023°38'0 0.0
2017-Nov-12 03:59N 37°57' E 023°38'0 0.0
2017-Nov-12 03:29N 37°57' E 023°38'0 0.0
2017-Nov-12 02:59N 37°57' E 023°38'0 0.0
2017-Nov-12 02:29N 37°57' E 023°38'0 0.0
2017-Nov-12 01:59N 37°57' E 023°38'0 0.0
2017-Nov-12 01:29N 37°57' E 023°38'0 0.0
2017-Nov-12 00:59N 37°57' E 023°38'0 0.0
2017-Nov-12 00:29N 37°57' E 023°38'0 0.0
2017-Nov-11 23:59N 37°57' E 023°38'0 0.0
2017-Nov-11 23:29N 37°57' E 023°38'0 0.0
2017-Nov-11 22:59N 37°57' E 023°38'0 0.0
2017-Nov-11 22:29N 37°57' E 023°38'0 0.0
2017-Nov-11 21:59N 37°57' E 023°38'0 0.0
2017-Nov-11 21:29N 37°57' E 023°38'0 0.0
2017-Nov-11 20:59N 37°57' E 023°38'0 0.0
2017-Nov-11 20:29N 37°57' E 023°38'0 0.0
2017-Nov-11 19:59N 37°57' E 023°38'0 0.0
2017-Nov-11 19:29N 37°57' E 023°38'0 0.0
2017-Nov-11 18:59N 37°57' E 023°38'0 0.0
2017-Nov-11 18:29N 37°57' E 023°38'0 0.0
2017-Nov-11 17:59N 37°57' E 023°38'0 0.0
2017-Nov-11 17:29N 37°57' E 023°38'0 0.0
2017-Nov-11 16:59N 37°57' E 023°38'0 0.0
2017-Nov-11 16:23N 37°57' E 023°38'0 0.0
2017-Nov-11 15:59N 37°57' E 023°38'0 0.0
2017-Nov-11 15:29N 37°57' E 023°38'0 0.0
2017-Nov-11 14:59N 37°57' E 023°38'0 0.0
2017-Nov-11 14:29N 37°57' E 023°38'0 0.0
2017-Nov-11 13:59N 37°57' E 023°38'0 0.0
2017-Nov-11 13:29N 37°57' E 023°38'0 0.0
2017-Nov-11 12:59N 37°57' E 023°38'0 0.0
2017-Nov-11 12:29N 37°57' E 023°38'0 0.0
2017-Nov-11 11:59N 37°57' E 023°38'0 0.0
2017-Nov-11 11:29N 37°57' E 023°38'0 0.0
2017-Nov-11 10:59N 37°57' E 023°38'0 0.0
2017-Nov-11 10:29N 37°57' E 023°38'0 0.0
2017-Nov-11 09:59N 37°57' E 023°38'0 0.0
2017-Nov-11 09:29N 37°57' E 023°38'0 0.0
2017-Nov-11 08:59N 37°57' E 023°38'0 0.0
2017-Nov-11 08:29N 37°57' E 023°38'0 0.0
2017-Nov-11 07:59N 37°57' E 023°38'0 0.0
2017-Nov-11 07:29N 37°57' E 023°38'0 0.0
2017-Nov-11 06:59N 37°57' E 023°38'0 0.0
2017-Nov-11 06:29N 37°57' E 023°38'0 0.0
2017-Nov-11 05:59N 37°57' E 023°38'0 0.0
2017-Nov-11 05:29N 37°57' E 023°38'0 0.0
2017-Nov-11 04:59N 37°57' E 023°38'0 0.0
2017-Nov-11 04:29N 37°57' E 023°38'0 0.0
2017-Nov-11 03:59N 37°57' E 023°38'0 0.0
2017-Nov-11 03:29N 37°57' E 023°38'0 0.0
2017-Nov-11 02:59N 37°57' E 023°38'0 0.0
2017-Nov-11 02:29N 37°57' E 023°38'0 0.0
2017-Nov-11 01:59N 37°57' E 023°38'0 0.0
2017-Nov-11 01:29N 37°57' E 023°38'0 0.0
2017-Nov-11 00:59N 37°57' E 023°38'0 0.0
2017-Nov-11 00:29N 37°57' E 023°38'0 0.0
2017-Nov-10 23:59N 37°57' E 023°38'0 0.0
2017-Nov-10 23:29N 37°57' E 023°38'0 0.0
2017-Nov-10 22:59N 37°57' E 023°38'0 0.0
2017-Nov-10 22:29N 37°57' E 023°38'0 0.0
2017-Nov-10 21:59N 37°57' E 023°38'0 0.0
2017-Nov-10 21:29N 37°57' E 023°38'2 3.3
2017-Nov-10 21:01N 37°55' E 023°37'1631.6
2017-Nov-10 20:30N 37°41' E 023°46'12 2.2
2017-Nov-10 15:05N 37°31' E 023°54'331.1
2017-Nov-10 14:59N 37°33' E 023°51'1530.4
2017-Nov-10 14:31N 37°45' E 023°40'1223.7
2017-Nov-10 14:01N 37°57' E 023°38'0 0.2
2017-Nov-10 13:30N 37°57' E 023°38'0 0.0
2017-Nov-10 12:59N 37°57' E 023°38'0 0.0
2017-Nov-10 12:29N 37°57' E 023°38'0 0.0
2017-Nov-10 11:59N 37°57' E 023°38'0 0.0
2017-Nov-10 11:29N 37°57' E 023°38'0 0.0
2017-Nov-10 10:59N 37°57' E 023°38'0 0.0
2017-Nov-10 10:23N 37°57' E 023°38'0 0.0
2017-Nov-10 09:59N 37°57' E 023°38'0 0.0
2017-Nov-10 09:29N 37°57' E 023°38'0 0.0
2017-Nov-10 08:56N 37°57' E 023°38'0 0.0
2017-Nov-10 08:29N 37°57' E 023°38'0 0.0
2017-Nov-10 07:59N 37°57' E 023°38'0 0.0
2017-Nov-10 07:29N 37°57' E 023°38'0 0.0
2017-Nov-10 06:59N 37°57' E 023°38'0 0.0
2017-Nov-10 06:29N 37°57' E 023°38'0 0.0
2017-Nov-10 05:59N 37°57' E 023°38'0 0.0
2017-Nov-10 05:29N 37°57' E 023°38'0 0.0
2017-Nov-10 04:59N 37°57' E 023°38'0 0.0
2017-Nov-10 04:29N 37°57' E 023°38'0 0.0
2017-Nov-10 03:59N 37°57' E 023°38'0 0.0
2017-Nov-10 03:29N 37°57' E 023°38'0 0.0
2017-Nov-10 02:59N 37°57' E 023°38'0 0.0
2017-Nov-10 02:29N 37°57' E 023°38'0 0.0
2017-Nov-10 01:59N 37°57' E 023°38'0 0.0
2017-Nov-10 01:29N 37°57' E 023°38'0 0.0
2017-Nov-10 00:59N 37°57' E 023°38'  
Track history (hours):
 
Tides and Currents Weather Stations Pressure Air Temp Water Temp Dewpoint Dewpoint Depression Visibility Wind Speed Wind Dir Waves Ship Positions

Speedrunner III

Last reported at 2017-Nov-20 00:29 UTC. Time now 2017-Nov-21 15:49 UTC.
Position N 37°57' E 023°38'.

Length 100 m; draft 4 m.

Type: Ship. MMSI: 240932000.

Date/timePositionNaut miles runAvg speedWind from/ knotsBaromVisibWave heightAir tempDewpointWater temp
2017-Nov-20 00:29N 37°57' E 023°38'0 0.0
2017-Nov-19 23:59N 37°57' E 023°38'0 0.0
2017-Nov-19 23:29N 37°57' E 023°38'0 0.0
2017-Nov-19 22:59N 37°57' E 023°38'0 0.0
2017-Nov-19 22:29N 37°57' E 023°38'0 0.0
2017-Nov-19 21:59N 37°57' E 023°38'0 0.0
2017-Nov-19 21:29N 37°57' E 023°38'0 0.0
2017-Nov-19 20:59N 37°57' E 023°38'0 0.0
2017-Nov-19 20:29N 37°57' E 023°38'0 0.0
2017-Nov-19 19:59N 37°57' E 023°38'0 0.0
2017-Nov-19 19:29N 37°57' E 023°38'0 0.0
2017-Nov-19 18:59N 37°57' E 023°38'0 0.0
2017-Nov-19 18:29N 37°57' E 023°38'0 0.0
2017-Nov-19 17:59N 37°57' E 023°38'2 4.8
2017-Nov-19 17:31N 37°54' E 023°38'1631.7
2017-Nov-19 17:00N 37°40' E 023°47'11 1.5
2017-Nov-19 10:04N 37°31' E 023°54'231.9
2017-Nov-19 10:01N 37°33' E 023°52'1631.4
2017-Nov-19 09:31N 37°45' E 023°40'1223.8
2017-Nov-19 09:00N 37°57' E 023°38'0 0.0
2017-Nov-19 07:14N 37°57' E 023°38'0 0.0
2017-Nov-19 06:50N 37°57' E 023°38'0 0.0
2017-Nov-19 06:20N 37°57' E 023°38'0 0.0
2017-Nov-19 05:32N 37°57' E 023°38'0 0.0
2017-Nov-19 05:14N 37°57' E 023°38'0 0.0
2017-Nov-19 04:56N 37°57' E 023°38'0 0.0
2017-Nov-19 04:26N 37°57' E 023°38'0 0.0
2017-Nov-19 03:56N 37°57' E 023°38'0 0.0
2017-Nov-19 03:26N 37°57' E 023°38'0 0.0
2017-Nov-19 02:56N 37°57' E 023°38'0 0.0
2017-Nov-19 02:26N 37°57' E 023°38'0 0.0
2017-Nov-19 01:44N 37°57' E 023°38'0 0.0
2017-Nov-19 01:20N 37°57' E 023°38'0 0.0
2017-Nov-19 00:56N 37°57' E 023°38'0 0.0
2017-Nov-19 00:26N 37°57' E 023°38'0 0.0
2017-Nov-18 23:32N 37°57' E 023°38'0 0.1
2017-Nov-18 23:26N 37°57' E 023°38'0 0.0
2017-Nov-18 22:50N 37°57' E 023°38'0 0.0
2017-Nov-18 22:26N 37°57' E 023°38'0 0.0
2017-Nov-18 21:32N 37°57' E 023°38'0 0.0
2017-Nov-18 21:26N 37°57' E 023°38'0 0.0
2017-Nov-18 20:20N 37°57' E 023°38'0 0.0
2017-Nov-18 13:14N 37°57' E 023°38'0 0.0
2017-Nov-18 11:50N 37°57' E 023°38'0 0.0
2017-Nov-18 10:50N 37°57' E 023°38'0 0.0
2017-Nov-18 10:20N 37°57' E 023°38'0 0.0
2017-Nov-18 08:44N 37°57' E 023°38'0 0.0
2017-Nov-18 08:26N 37°57' E 023°38'0 0.0
2017-Nov-18 07:08N 37°57' E 023°38'0 0.0
2017-Nov-18 06:56N 37°57' E 023°38'0 0.0
2017-Nov-18 05:26N 37°57' E 023°38'0 0.0
2017-Nov-18 04:32N 37°57' E 023°38'0 0.0
2017-Nov-18 04:08N 37°57' E 023°38'0 0.0
2017-Nov-18 03:44N 37°57' E 023°38'0 0.0
2017-Nov-18 03:26N 37°57' E 023°38'0 0.0
2017-Nov-18 02:44N 37°57' E 023°38'0 0.0
2017-Nov-18 02:14N 37°57' E 023°38'0 0.0
2017-Nov-18 01:50N 37°57' E 023°38'0 0.0
2017-Nov-18 01:14N 37°57' E 023°38'0 0.0
2017-Nov-18 00:50N 37°57' E 023°38'0 0.0
2017-Nov-18 00:26N 37°57' E 023°38'0 0.0
2017-Nov-17 23:50N 37°57' E 023°38'0 0.0
2017-Nov-17 23:20N 37°57' E 023°38'0 0.0
2017-Nov-17 22:56N 37°57' E 023°38'0 0.0
2017-Nov-17 22:26N 37°57' E 023°38'0 0.0
2017-Nov-17 21:56N 37°57' E 023°38'0 0.0
2017-Nov-17 21:26N 37°57' E 023°38'511.5
2017-Nov-17 21:01N 37°52' E 023°39'24 4.1
2017-Nov-17 15:05N 37°31' E 023°55'431.4
2017-Nov-17 14:59N 37°33' E 023°52'1430.8
2017-Nov-17 14:30N 37°44' E 023°40'1224.4
2017-Nov-17 14:00N 37°57' E 023°38'0 0.1
2017-Nov-17 12:54N 37°57' E 023°38'0 0.0
2017-Nov-17 12:18N 37°57' E 023°38'0 0.0
2017-Nov-17 11:07N 37°57' E 023°38'0 0.1
2017-Nov-17 11:00N 37°57' E 023°38'0 0.0
2017-Nov-17 10:31N 37°57' E 023°38'0 0.0
2017-Nov-17 10:00N 37°57' E 023°38'0 0.0
2017-Nov-17 09:31N 37°57' E 023°38'0 0.0
2017-Nov-17 09:00N 37°57' E 023°38'0 0.0
2017-Nov-17 08:31N 37°57' E 023°38'0 0.0
2017-Nov-17 08:01N 37°57' E 023°38'0 0.0
2017-Nov-17 07:30N 37°57' E 023°38'0 0.0
2017-Nov-17 07:01N 37°57' E 023°38'0 0.0
2017-Nov-17 06:31N 37°57' E 023°38'0 0.0
2017-Nov-17 06:00N 37°57' E 023°38'0 0.0
2017-Nov-17 05:30N 37°57' E 023°38'0 0.0
2017-Nov-17 05:01N 37°57' E 023°38'0 0.0
2017-Nov-17 04:30N 37°57' E 023°38'0 0.0
2017-Nov-17 04:01N 37°57' E 023°38'0 0.0
2017-Nov-17 03:31N 37°57' E 023°38'0 0.0
2017-Nov-17 03:01N 37°57' E 023°38'0 0.0
2017-Nov-17 02:30N 37°57' E 023°38'0 0.0
2017-Nov-17 02:01N 37°57' E 023°38'0 0.0
2017-Nov-17 01:30N 37°57' E 023°38'0 0.0
2017-Nov-17 01:00N 37°57' E 023°38'0 0.0
2017-Nov-17 00:30N 37°57' E 023°38'0 0.0
2017-Nov-17 00:01N 37°57' E 023°38'0 0.0
2017-Nov-16 23:31N 37°57' E 023°38'0 0.0
2017-Nov-16 23:01N 37°57' E 023°38'0 0.0
2017-Nov-16 22:30N 37°57' E 023°38'0 0.0
2017-Nov-16 22:00N 37°57' E 023°38'0 0.0
2017-Nov-16 21:31N 37°57' E 023°38'0 0.0
2017-Nov-16 21:01N 37°57' E 023°38'0 0.0
2017-Nov-16 20:30N 37°57' E 023°38'0 0.0
2017-Nov-16 19:58N 37°57' E 023°38'0 0.0
2017-Nov-16 19:31N 37°57' E 023°38'0 0.0
2017-Nov-16 19:01N 37°57' E 023°38'0 0.0
2017-Nov-16 18:31N 37°57' E 023°38'0 0.0
2017-Nov-16 18:00N 37°57' E 023°38'0 0.0
2017-Nov-16 17:31N 37°57' E 023°38'0 0.0
2017-Nov-16 17:01N 37°57' E 023°38'0 0.0
2017-Nov-16 16:30N 37°57' E 023°38'0 0.0
2017-Nov-16 16:00N 37°57' E 023°38'0 0.0
2017-Nov-16 15:31N 37°57' E 023°38'0 0.0
2017-Nov-16 15:01N 37°57' E 023°38'0 0.0
2017-Nov-16 14:30N 37°57' E 023°38'0 0.0
2017-Nov-16 14:01N 37°57' E 023°38'0 0.0
2017-Nov-16 13:30N 37°57' E 023°38'0 0.0
2017-Nov-16 13:00N 37°57' E 023°38'0 0.0
2017-Nov-16 12:31N 37°57' E 023°38'0 0.0
2017-Nov-16 12:01N 37°57' E 023°38'0 0.0
2017-Nov-16 11:31N 37°57' E 023°38'0 0.0
2017-Nov-16 11:01N 37°57' E 023°38'0 0.0
2017-Nov-16 10:27N 37°57' E 023°38'0 0.0
2017-Nov-16 10:01N 37°57' E 023°38'0 0.0
2017-Nov-16 09:31N 37°57' E 023°38'0 0.0
2017-Nov-16 09:00N 37°57' E 023°38'0 0.0
2017-Nov-16 08:30N 37°57' E 023°38'0 0.0
2017-Nov-16 08:00N 37°57' E 023°38'0 0.0
2017-Nov-16 07:31N 37°57' E 023°38'0 0.0
2017-Nov-16 07:00N 37°57' E 023°38'0 0.0
2017-Nov-16 06:30N 37°57' E 023°38'0 0.0
2017-Nov-16 06:01N 37°57' E 023°38'0 0.0
2017-Nov-16 05:31N 37°57' E 023°38'0 0.0
2017-Nov-16 05:00N 37°57' E 023°38'0 0.0
2017-Nov-16 04:30N 37°57' E 023°38'0 0.0
2017-Nov-16 04:01N 37°57' E 023°38'0 0.0
2017-Nov-16 03:31N 37°57' E 023°38'0 0.0
2017-Nov-16 03:01N 37°57' E 023°38'0 0.0
2017-Nov-16 02:31N 37°57' E 023°38'0 0.0
2017-Nov-16 02:01N 37°57' E 023°38'0 0.0
2017-Nov-16 01:31N 37°57' E 023°38'0 0.0
2017-Nov-16 01:00N 37°57' E 023°38'0 0.0
2017-Nov-16 00:31N 37°57' E 023°38'0 0.0
2017-Nov-16 00:00N 37°57' E 023°38'0 0.0
2017-Nov-15 23:30N 37°57' E 023°38'0 0.0
2017-Nov-15 23:01N 37°57' E 023°38'0 0.0
2017-Nov-15 22:30N 37°57' E 023°38'0 0.0
2017-Nov-15 22:01N 37°57' E 023°38'0 0.0
2017-Nov-15 21:31N 37°57' E 023°38'0 0.0
2017-Nov-15 21:00N 37°57' E 023°38'0 0.0
2017-Nov-15 20:30N 37°57' E 023°38'0 0.0
2017-Nov-15 20:00N 37°57' E 023°38'0 0.0
2017-Nov-15 19:31N 37°57' E 023°38'0 0.0
2017-Nov-15 19:00N 37°57' E 023°38'0 0.0
2017-Nov-15 18:31N 37°57' E 023°38'0 0.0
2017-Nov-15 18:01N 37°57' E 023°38'0 0.0
2017-Nov-15 17:01N 37°57' E 023°38'0 0.0
2017-Nov-15 16:31N 37°57' E 023°38'0 0.0
2017-Nov-15 15:07N 37°57' E 023°38'0 0.0
2017-Nov-15 15:01N 37°57' E 023°38'0 0.0
2017-Nov-15 14:30N 37°57' E 023°38'0 0.0
2017-Nov-15 14:01N 37°57' E 023°38'0 0.0
2017-Nov-15 13:31N 37°57' E 023°38'0 0.0
2017-Nov-15 13:00N 37°57' E 023°38'0 0.0
2017-Nov-15 12:30N 37°57' E 023°38'0 0.0
2017-Nov-15 12:00N 37°57' E 023°38'0 0.0
2017-Nov-15 11:30N 37°57' E 023°38'0 0.0
2017-Nov-15 11:01N 37°57' E 023°38'0 0.0
2017-Nov-15 10:27N 37°57' E 023°38'0 0.0
2017-Nov-15 10:00N 37°57' E 023°38'0 0.0
2017-Nov-15 09:30N 37°57' E 023°38'0 0.0
2017-Nov-15 09:00N 37°57' E 023°38'0 0.0
2017-Nov-15 08:31N 37°57' E 023°38'0 0.0
2017-Nov-15 08:01N 37°57' E 023°38'0 0.0
2017-Nov-15 07:31N 37°57' E 023°38'0 0.0
2017-Nov-15 07:01N 37°57' E 023°38'0 0.0
2017-Nov-15 06:31N 37°57' E 023°38'0 0.0
2017-Nov-15 06:00N 37°57' E 023°38'0 0.0
2017-Nov-15 05:31N 37°57' E 023°38'0 0.0
2017-Nov-15 05:01N 37°57' E 023°38'0 0.0
2017-Nov-15 04:30N 37°57' E 023°38'0 0.0
2017-Nov-15 04:01N 37°57' E 023°38'0 0.0
2017-Nov-15 03:31N 37°57' E 023°38'0 0.0
2017-Nov-15 03:01N 37°57' E 023°38'0 0.0
2017-Nov-15 02:30N 37°57' E 023°38'0 0.0
2017-Nov-15 02:01N 37°57' E 023°38'0 0.0
2017-Nov-15 01:31N 37°57' E 023°38'0 0.0
2017-Nov-15 01:00N 37°57' E 023°38'0 0.0
2017-Nov-15 00:30N 37°57' E 023°38'0 0.0
2017-Nov-15 00:01N 37°57' E 023°38'0 0.0
2017-Nov-14 23:31N 37°57' E 023°38'0 0.0
2017-Nov-14 23:00N 37°57' E 023°38'0 0.0
2017-Nov-14 22:31N 37°57' E 023°38'0 0.0
2017-Nov-14 22:01N 37°57' E 023°38'0 0.0
2017-Nov-14 21:31N 37°57' E 023°38'0 0.0
2017-Nov-14 21:00N 37°57' E 023°38'0 0.0
2017-Nov-14 20:30N 37°57' E 023°38'0 0.0
2017-Nov-14 20:01N 37°57' E 023°38'0 0.0
2017-Nov-14 19:31N 37°57' E 023°38'0 0.0
2017-Nov-14 19:00N 37°57' E 023°38'0 0.0
2017-Nov-14 18:31N 37°57' E 023°38'0 0.0
2017-Nov-14 18:00N 37°57' E 023°38'0 0.0
2017-Nov-14 17:31N 37°57' E 023°38'0 0.0
2017-Nov-14 17:00N 37°57' E 023°38'0 0.0
2017-Nov-14 16:31N 37°57' E 023°38'0 0.0
2017-Nov-14 16:00N 37°57' E 023°38'0 0.0
2017-Nov-14 15:30N 37°57' E 023°38'0 0.0
2017-Nov-14 15:01N 37°57' E 023°38'0 0.0
2017-Nov-14 14:30N 37°57' E 023°38'0 0.0
2017-Nov-14 14:01N 37°57' E 023°38'0 0.0
2017-Nov-14 13:30N 37°57' E 023°38'0 0.0
2017-Nov-14 13:00N 37°57' E 023°38'0 0.0
2017-Nov-14 12:30N 37°57' E 023°38'0 0.0
2017-Nov-14 12:01N 37°57' E 023°38'0 0.0
2017-Nov-14 11:31N 37°57' E 023°38'0 0.0
2017-Nov-14 11:01N 37°57' E 023°38'0 0.0
2017-Nov-14 10:31N 37°57' E 023°38'0 0.0
2017-Nov-14 10:00N 37°57' E 023°38'0 0.0
2017-Nov-14 09:31N 37°57' E 023°38'0 0.0
2017-Nov-14 09:01N 37°57' E 023°38'0 0.0
2017-Nov-14 08:25N 37°57' E 023°38'0 0.0
2017-Nov-14 08:01N 37°57' E 023°38'0 0.0
2017-Nov-14 07:31N 37°57' E 023°38'0 0.0
2017-Nov-14 06:58N 37°57' E 023°38'0 0.0
2017-Nov-14 06:31N 37°57' E 023°38'0 0.0
2017-Nov-14 06:01N 37°57' E 023°38'0 0.0
2017-Nov-14 05:30N 37°57' E 023°38'0 0.0
2017-Nov-14 05:01N 37°57' E 023°38'0 0.0
2017-Nov-14 04:31N 37°57' E 023°38'0 0.0
2017-Nov-14 04:00N 37°57' E 023°38'0 0.0
2017-Nov-14 03:31N 37°57' E 023°38'0 0.0
2017-Nov-14 03:00N 37°57' E 023°38'0 0.0
2017-Nov-14 02:31N 37°57' E 023°38'0 0.0
2017-Nov-14 02:00N 37°57' E 023°38'0 0.0
2017-Nov-14 01:31N 37°57' E 023°38'0 0.0
2017-Nov-14 01:01N 37°57' E 023°38'0 0.0
2017-Nov-14 00:31N 37°57' E 023°38'0 0.0
2017-Nov-14 00:01N 37°57' E 023°38'0 0.0
2017-Nov-13 23:31N 37°57' E 023°38'0 0.0
2017-Nov-13 23:01N 37°57' E 023°38'0 0.0
2017-Nov-13 22:31N 37°57' E 023°38'0 0.0
2017-Nov-13 22:00N 37°57' E 023°38'0 0.0
2017-Nov-13 02:01N 37°57' E 023°38'0 0.0
2017-Nov-13 01:31N 37°57' E 023°38'0 0.0
2017-Nov-13 01:00N 37°57' E 023°38'0 0.0
2017-Nov-13 00:30N 37°57' E 023°38'0 0.0
2017-Nov-13 00:00N 37°57' E 023°38'0 0.0
2017-Nov-12 23:31N 37°57' E 023°38'0 0.0
2017-Nov-12 23:00N 37°57' E 023°38'0 0.0
2017-Nov-12 22:31N 37°57' E 023°38'0 0.0
2017-Nov-12 22:01N 37°57' E 023°38'0 0.0
2017-Nov-12 21:30N 37°57' E 023°38'0 0.0
2017-Nov-12 21:01N 37°57' E 023°38'0 0.0
2017-Nov-12 20:28N 37°57' E 023°38'0 0.0
2017-Nov-12 20:00N 37°57' E 023°38'0 0.0
2017-Nov-12 19:31N 37°57' E 023°38'0 0.0
2017-Nov-12 19:01N 37°57' E 023°38'0 0.0
2017-Nov-12 18:31N 37°57' E 023°38'0 0.0
2017-Nov-12 18:01N 37°57' E 023°38'3 5.1
2017-Nov-12 17:31N 37°54' E 023°38'1632.2
2017-Nov-12 17:00N 37°40' E 023°47'11 1.6
2017-Nov-12 10:06N 37°31' E 023°54'331.1
2017-Nov-12 10:01N 37°33' E 023°52'1530.7
2017-Nov-12 09:31N 37°45' E 023°40'1223.8
2017-Nov-12 09:00N 37°57' E 023°38'0 0.0
2017-Nov-12 08:30N 37°57' E 023°38'0 0.0
2017-Nov-12 08:00N 37°57' E 023°38'0 0.0
2017-Nov-12 07:29N 37°57' E 023°38'0 0.0
2017-Nov-12 06:59N 37°57' E 023°38'0 0.0
2017-Nov-12 06:29N 37°57' E 023°38'0 0.0
2017-Nov-12 05:59N 37°57' E 023°38'0 0.0
2017-Nov-12 05:29N 37°57' E 023°38'0 0.0
2017-Nov-12 04:59N 37°57' E 023°38'0 0.0
2017-Nov-12 04:29N 37°57' E 023°38'0 0.0
2017-Nov-12 03:59N 37°57' E 023°38'0 0.0
2017-Nov-12 03:29N 37°57' E 023°38'0 0.0
2017-Nov-12 02:59N 37°57' E 023°38'0 0.0
2017-Nov-12 02:29N 37°57' E 023°38'0 0.0
2017-Nov-12 01:59N 37°57' E 023°38'0 0.0
2017-Nov-12 01:29N 37°57' E 023°38'0 0.0
2017-Nov-12 00:59N 37°57' E 023°38'0 0.0
2017-Nov-12 00:29N 37°57' E 023°38'0 0.0
2017-Nov-11 23:59N 37°57' E 023°38'0 0.0
2017-Nov-11 23:29N 37°57' E 023°38'0 0.0
2017-Nov-11 22:59N 37°57' E 023°38'0 0.0
2017-Nov-11 22:29N 37°57' E 023°38'0 0.0
2017-Nov-11 21:59N 37°57' E 023°38'0 0.0
2017-Nov-11 21:29N 37°57' E 023°38'0 0.0
2017-Nov-11 20:59N 37°57' E 023°38'0 0.0
2017-Nov-11 20:29N 37°57' E 023°38'0 0.0
2017-Nov-11 19:59N 37°57' E 023°38'0 0.0
2017-Nov-11 19:29N 37°57' E 023°38'0 0.0
2017-Nov-11 18:59N 37°57' E 023°38'0 0.0
2017-Nov-11 18:29N 37°57' E 023°38'0 0.0
2017-Nov-11 17:59N 37°57' E 023°38'0 0.0
2017-Nov-11 17:29N 37°57' E 023°38'0 0.0
2017-Nov-11 16:59N 37°57' E 023°38'0 0.0
2017-Nov-11 16:23N 37°57' E 023°38'0 0.0
2017-Nov-11 15:59N 37°57' E 023°38'0 0.0
2017-Nov-11 15:29N 37°57' E 023°38'0 0.0
2017-Nov-11 14:59N 37°57' E 023°38'0 0.0
2017-Nov-11 14:29N 37°57' E 023°38'0 0.0
2017-Nov-11 13:59N 37°57' E 023°38'0 0.0
2017-Nov-11 13:29N 37°57' E 023°38'0 0.0
2017-Nov-11 12:59N 37°57' E 023°38'0 0.0
2017-Nov-11 12:29N 37°57' E 023°38'0 0.0
2017-Nov-11 11:59N 37°57' E 023°38'0 0.0
2017-Nov-11 11:29N 37°57' E 023°38'0 0.0
2017-Nov-11 10:59N 37°57' E 023°38'0 0.0
2017-Nov-11 10:29N 37°57' E 023°38'0 0.0
2017-Nov-11 09:59N 37°57' E 023°38'0 0.0
2017-Nov-11 09:29N 37°57' E 023°38'0 0.0
2017-Nov-11 08:59N 37°57' E 023°38'0 0.0
2017-Nov-11 08:29N 37°57' E 023°38'0 0.0
2017-Nov-11 07:59N 37°57' E 023°38'0 0.0
2017-Nov-11 07:29N 37°57' E 023°38'0 0.0
2017-Nov-11 06:59N 37°57' E 023°38'0 0.0
2017-Nov-11 06:29N 37°57' E 023°38'0 0.0
2017-Nov-11 05:59N 37°57' E 023°38'0 0.0
2017-Nov-11 05:29N 37°57' E 023°38'0 0.0
2017-Nov-11 04:59N 37°57' E 023°38'0 0.0
2017-Nov-11 04:29N 37°57' E 023°38'0 0.0
2017-Nov-11 03:59N 37°57' E 023°38'0 0.0
2017-Nov-11 03:29N 37°57' E 023°38'0 0.0
2017-Nov-11 02:59N 37°57' E 023°38'0 0.0
2017-Nov-11 02:29N 37°57' E 023°38'0 0.0
2017-Nov-11 01:59N 37°57' E 023°38'0 0.0
2017-Nov-11 01:29N 37°57' E 023°38'0 0.0
2017-Nov-11 00:59N 37°57' E 023°38'0 0.0
2017-Nov-11 00:29N 37°57' E 023°38'0 0.0
2017-Nov-10 23:59N 37°57' E 023°38'0 0.0
2017-Nov-10 23:29N 37°57' E 023°38'0 0.0
2017-Nov-10 22:59N 37°57' E 023°38'0 0.0
2017-Nov-10 22:29N 37°57' E 023°38'0 0.0
2017-Nov-10 21:59N 37°57' E 023°38'0 0.0
2017-Nov-10 21:29N 37°57' E 023°38'2 3.3
2017-Nov-10 21:01N 37°55' E 023°37'1631.6
2017-Nov-10 20:30N 37°41' E 023°46'12 2.2
2017-Nov-10 15:05N 37°31' E 023°54'331.1
2017-Nov-10 14:59N 37°33' E 023°51'1530.4
2017-Nov-10 14:31N 37°45' E 023°40'1223.7
2017-Nov-10 14:01N 37°57' E 023°38'0 0.2
2017-Nov-10 13:30N 37°57' E 023°38'0 0.0
2017-Nov-10 12:59N 37°57' E 023°38'0 0.0
2017-Nov-10 12:29N 37°57' E 023°38'0 0.0
2017-Nov-10 11:59N 37°57' E 023°38'0 0.0
2017-Nov-10 11:29N 37°57' E 023°38'0 0.0
2017-Nov-10 10:59N 37°57' E 023°38'0 0.0
2017-Nov-10 10:23N 37°57' E 023°38'0 0.0
2017-Nov-10 09:59N 37°57' E 023°38'0 0.0
2017-Nov-10 09:29N 37°57' E 023°38'0 0.0
2017-Nov-10 08:56N 37°57' E 023°38'0 0.0
2017-Nov-10 08:29N 37°57' E 023°38'0 0.0
2017-Nov-10 07:59N 37°57' E 023°38'0 0.0
2017-Nov-10 07:29N 37°57' E 023°38'0 0.0
2017-Nov-10 06:59N 37°57' E 023°38'0 0.0
2017-Nov-10 06:29N 37°57' E 023°38'0 0.0
2017-Nov-10 05:59N 37°57' E 023°38'0 0.0
2017-Nov-10 05:29N 37°57' E 023°38'0 0.0
2017-Nov-10 04:59N 37°57' E 023°38'0 0.0
2017-Nov-10 04:29N 37°57' E 023°38'0 0.0
2017-Nov-10 03:59N 37°57' E 023°38'0 0.0
2017-Nov-10 03:29N 37°57' E 023°38'0 0.0
2017-Nov-10 02:59N 37°57' E 023°38'0 0.0
2017-Nov-10 02:29N 37°57' E 023°38'0 0.0
2017-Nov-10 01:59N 37°57' E 023°38'0 0.0
2017-Nov-10 01:29N 37°57' E 023°38'0 0.0
2017-Nov-10 00:59N 37°57' E 023°38'  

Dump ship's entire track history